Time;durP1;ratioP1;P1;durP2;ratioP2;P2;SDS_P1;SDS_P2;PMS_P1;PMS_P2;Temp;Humidity;BMP_temperature;BMP_pressure;BME280_temperature;BME280_humidity;BME280_pressure;Samples;Min_cycle;Max_cycle;Signal;HPM_P1;HPM_P2
2024/01/03 00:00:43;;;;;;;1.93;1.30;;;7.50;99.90;;;;;;4982444;28;20287;-81
2024/01/03 00:03:11;;;;;;;3.47;1.20;;;7.50;99.90;;;;;;5004776;28;20288;-81
2024/01/03 00:05:41;;;;;;;1.23;1.10;;;7.50;99.90;;;;;;4992164;28;20334;-81
2024/01/03 00:08:15;;;;;;;1.90;1.10;;;7.50;99.90;;;;;;4988386;28;20265;-80
2024/01/03 00:10:47;;;;;;;2.23;1.10;;;7.50;99.90;;;;;;4985627;28;20225;-80
2024/01/03 00:13:50;;;;;;;1.80;1.10;;;7.50;99.90;;;;;;5003790;28;20324;-81
2024/01/03 00:16:20;;;;;;;2.43;1.10;;;7.60;99.90;;;;;;4993715;28;20955;-81
2024/01/03 00:18:50;;;;;;;3.80;1.30;;;7.60;99.90;;;;;;4969521;28;20647;-81
2024/01/03 00:21:19;;;;;;;2.40;1.10;;;7.70;99.90;;;;;;4975326;28;20252;-81
2024/01/03 00:23:50;;;;;;;3.20;1.40;;;7.70;99.90;;;;;;4977800;28;20229;-82
2024/01/03 00:26:18;;;;;;;3.33;1.27;;;7.70;99.90;;;;;;4967087;28;20222;-81
2024/01/03 00:28:46;;;;;;;2.37;1.10;;;7.80;99.90;;;;;;4977092;28;20221;-81
2024/01/03 00:31:26;;;;;;;5.07;1.37;;;7.80;99.90;;;;;;4979306;28;20302;-81
2024/01/03 00:33:53;;;;;;;4.70;1.20;;;7.80;99.90;;;;;;5004386;28;20278;-82
2024/01/03 00:36:19;;;;;;;4.00;1.13;;;7.90;99.90;;;;;;4984872;28;20835;-81
2024/01/03 00:38:46;;;;;;;4.37;1.20;;;7.90;99.90;;;;;;4985546;28;20236;-81
2024/01/03 00:41:13;;;;;;;4.33;1.30;;;7.90;99.90;;;;;;5000799;28;20232;-82
2024/01/03 00:43:43;;;;;;;2.37;0.90;;;7.90;99.90;;;;;;4987377;28;20309;-82
2024/01/03 00:46:11;;;;;;;2.87;1.30;;;8.00;99.90;;;;;;4987918;28;20228;-82
2024/01/03 00:48:40;;;;;;;6.27;1.63;;;8.00;99.90;;;;;;4984286;28;20234;-82
2024/01/03 00:51:08;;;;;;;5.33;1.30;;;8.00;99.90;;;;;;5000165;28;20228;-82
2024/01/03 00:53:35;;;;;;;4.43;1.30;;;8.00;99.90;;;;;;5007228;28;20231;-82
2024/01/03 00:56:01;;;;;;;4.37;1.43;;;8.00;99.90;;;;;;4978803;28;20323;-81
2024/01/03 00:58:29;;;;;;;3.73;1.30;;;8.10;99.90;;;;;;4983087;28;20228;-81
2024/01/03 01:00:57;;;;;;;3.07;1.40;;;8.10;99.90;;;;;;4986471;28;20314;-82
2024/01/03 01:03:24;;;;;;;2.43;1.10;;;8.10;99.90;;;;;;4986604;28;20390;-81
2024/01/03 01:05:50;;;;;;;7.93;1.77;;;8.10;99.90;;;;;;4987880;28;20926;-82
2024/01/03 01:08:17;;;;;;;3.77;1.13;;;8.10;99.90;;;;;;4983794;28;20798;-83
2024/01/03 01:10:44;;;;;;;6.93;1.50;;;8.10;99.90;;;;;;4957153;28;20265;-83
2024/01/03 01:13:11;;;;;;;4.87;1.27;;;8.10;99.90;;;;;;4989363;28;20892;-82
2024/01/03 01:15:38;;;;;;;4.00;1.00;;;8.20;99.90;;;;;;4969229;28;20316;-81
2024/01/03 01:18:06;;;;;;;4.80;1.20;;;8.20;99.90;;;;;;4990618;28;20311;-82
2024/01/03 01:20:32;;;;;;;4.50;1.20;;;8.20;99.90;;;;;;4982908;28;20311;-81
2024/01/03 01:22:59;;;;;;;3.77;1.20;;;8.20;99.90;;;;;;4991455;28;20228;-82
2024/01/03 01:25:26;;;;;;;5.60;1.47;;;8.20;99.90;;;;;;4985421;28;20224;-82
2024/01/03 01:27:53;;;;;;;3.20;1.17;;;8.20;99.90;;;;;;4987838;28;20263;-82
2024/01/03 01:30:19;;;;;;;4.37;1.30;;;8.20;99.90;;;;;;4981422;28;20328;-81
2024/01/03 01:32:48;;;;;;;4.37;1.30;;;8.30;99.90;;;;;;5004120;28;20244;-82
2024/01/03 01:35:17;;;;;;;5.57;1.40;;;8.30;99.90;;;;;;5015547;28;20227;-81
2024/01/03 01:37:44;;;;;;;4.20;0.90;;;8.30;99.90;;;;;;4985426;28;20598;-82
2024/01/03 01:40:12;;;;;;;2.87;1.30;;;8.30;99.90;;;;;;4985318;28;20240;-83
2024/01/03 01:42:41;;;;;;;6.07;1.13;;;8.30;99.90;;;;;;4979218;28;20312;-82
2024/01/03 01:45:09;;;;;;;4.87;1.30;;;8.30;99.90;;;;;;5006758;28;20228;-82
2024/01/03 01:47:36;;;;;;;4.60;1.20;;;8.30;99.90;;;;;;5005509;28;20254;-83
2024/01/03 01:50:04;;;;;;;4.13;1.20;;;8.30;99.90;;;;;;5018305;28;20231;-83
2024/01/03 01:52:33;;;;;;;6.30;1.30;;;8.30;99.90;;;;;;4996390;28;20231;-82
2024/01/03 01:55:02;;;;;;;4.03;1.20;;;8.30;99.90;;;;;;4985299;28;20723;-82
2024/01/03 01:57:32;;;;;;;3.60;1.07;;;8.30;99.90;;;;;;4983306;28;20228;-82
2024/01/03 02:00:00;;;;;;;5.27;1.20;;;8.30;99.90;;;;;;4984830;28;20228;-82
2024/01/03 02:02:27;;;;;;;6.47;1.30;;;8.30;99.90;;;;;;4977784;28;20650;-83
2024/01/03 02:04:55;;;;;;;6.53;1.40;;;8.30;99.90;;;;;;5000537;28;20222;-81
2024/01/03 02:07:23;;;;;;;5.53;1.40;;;8.30;99.90;;;;;;4981653;28;20237;-82
2024/01/03 02:09:52;;;;;;;7.70;1.70;;;8.40;99.90;;;;;;4985886;28;20246;-81
2024/01/03 02:12:26;;;;;;;5.93;1.20;;;8.30;99.90;;;;;;5000459;28;20228;-80
2024/01/03 02:14:53;;;;;;;4.00;1.20;;;8.30;99.90;;;;;;4983647;28;20216;-81
2024/01/03 02:17:21;;;;;;;5.83;1.87;;;8.40;99.90;;;;;;4979391;28;20248;-81
2024/01/03 02:19:48;;;;;;;5.93;1.20;;;8.30;99.90;;;;;;4974009;28;20268;-81
2024/01/03 02:22:18;;;;;;;7.93;1.10;;;8.30;99.90;;;;;;4984118;28;20228;-81
2024/01/03 02:24:45;;;;;;;3.33;1.10;;;8.30;99.90;;;;;;4979574;28;20227;-83
2024/01/03 02:27:13;;;;;;;5.57;1.20;;;8.30;99.90;;;;;;4979492;28;20222;-82
2024/01/03 02:29:39;;;;;;;9.20;1.20;;;8.30;99.90;;;;;;4989680;28;20227;-83
2024/01/03 02:32:07;;;;;;;9.00;1.70;;;8.30;99.90;;;;;;4991079;28;20234;-81
2024/01/03 02:34:33;;;;;;;5.00;1.47;;;8.30;99.90;;;;;;4996984;28;20348;-80
2024/01/03 02:37:01;;;;;;;5.90;1.30;;;8.20;99.90;;;;;;4983663;28;20263;-81
2024/01/03 02:39:29;;;;;;;5.37;1.50;;;8.20;99.90;;;;;;4985761;28;20293;-82
2024/01/03 02:41:55;;;;;;;3.47;1.00;;;8.20;99.90;;;;;;4992953;28;20231;-81
2024/01/03 02:44:23;;;;;;;2.83;1.17;;;8.10;99.90;;;;;;4989971;28;21010;-81
2024/01/03 02:46:50;;;;;;;5.10;1.10;;;8.10;99.90;;;;;;4992935;28;20255;-82
2024/01/03 02:49:17;;;;;;;5.37;1.57;;;8.10;99.90;;;;;;5003599;28;20227;-81
2024/01/03 02:51:44;;;;;;;8.30;1.63;;;8.10;99.90;;;;;;4993706;28;20797;-82
2024/01/03 02:54:10;;;;;;;5.10;1.33;;;8.10;99.90;;;;;;5008992;28;20223;-82
2024/01/03 02:56:40;;;;;;;8.50;1.63;;;8.10;99.90;;;;;;5020993;28;20339;-83
2024/01/03 02:59:07;;;;;;;3.80;1.20;;;8.00;99.90;;;;;;4983762;28;20311;-83
2024/01/03 03:01:34;;;;;;;3.60;1.10;;;8.00;99.90;;;;;;4988584;28;20347;-82
2024/01/03 03:04:01;;;;;;;5.50;1.27;;;8.00;99.90;;;;;;5010085;28;20738;-83
2024/01/03 03:06:28;;;;;;;6.93;1.37;;;8.00;99.90;;;;;;4979333;28;20360;-83
2024/01/03 03:08:55;;;;;;;4.57;1.20;;;8.00;99.90;;;;;;5007114;28;20263;-83
2024/01/03 03:11:21;;;;;;;5.13;1.13;;;8.00;99.90;;;;;;5007390;28;20730;-82
2024/01/03 03:13:50;;;;;;;3.87;1.13;;;8.00;99.90;;;;;;4992668;28;20914;-83
2024/01/03 03:16:17;;;;;;;5.60;1.27;;;8.00;99.90;;;;;;4986587;28;20223;-83
2024/01/03 03:18:43;;;;;;;3.13;1.17;;;8.00;99.90;;;;;;5017950;28;20234;-82
2024/01/03 03:21:11;;;;;;;5.67;0.90;;;8.00;99.90;;;;;;5017122;28;20321;-82
2024/01/03 03:23:40;;;;;;;3.97;1.33;;;7.90;99.90;;;;;;5011636;28;20231;-82
2024/01/03 03:26:07;;;;;;;2.37;1.13;;;8.00;99.90;;;;;;4991099;28;20366;-82
2024/01/03 03:28:34;;;;;;;4.50;1.00;;;7.90;99.90;;;;;;5004912;28;20223;-83
2024/01/03 03:31:03;;;;;;;2.50;0.83;;;7.90;99.90;;;;;;4992263;28;20232;-82
2024/01/03 03:33:31;;;;;;;5.27;1.10;;;7.90;99.90;;;;;;5003883;28;20228;-82
2024/01/03 03:35:58;;;;;;;4.07;0.80;;;7.90;99.90;;;;;;4998827;28;20224;-82
2024/01/03 03:38:25;;;;;;;5.27;1.00;;;7.90;99.90;;;;;;5016934;28;20255;-81
2024/01/03 03:40:52;;;;;;;4.03;0.90;;;7.90;99.90;;;;;;5003434;28;20264;-82
2024/01/03 03:43:19;;;;;;;4.10;0.80;;;7.90;99.90;;;;;;4984451;28;20255;-82
2024/01/03 03:45:45;;;;;;;4.00;0.70;;;7.90;99.90;;;;;;5012240;28;20237;-81
2024/01/03 03:48:14;;;;;;;5.57;0.80;;;7.90;99.90;;;;;;4989926;28;20624;-82
2024/01/03 03:50:41;;;;;;;3.03;0.93;;;7.90;99.90;;;;;;4988421;28;20281;-81
2024/01/03 03:53:10;;;;;;;2.73;0.90;;;7.90;99.90;;;;;;4982057;28;20224;-82
2024/01/03 03:55:41;;;;;;;3.30;0.83;;;7.80;99.90;;;;;;4980424;28;21892;-82
2024/01/03 03:58:08;;;;;;;3.30;1.13;;;7.80;99.90;;;;;;5001819;28;20954;-83
2024/01/03 04:00:35;;;;;;;2.57;0.80;;;7.80;99.90;;;;;;4989866;28;20263;-81
2024/01/03 04:03:06;;;;;;;3.30;0.90;;;7.80;99.90;;;;;;4992152;28;20228;-82
2024/01/03 04:05:34;;;;;;;4.03;0.77;;;7.70;99.90;;;;;;5004934;28;20228;-82
2024/01/03 04:08:01;;;;;;;1.77;0.70;;;7.70;99.90;;;;;;5003914;28;20228;-82
2024/01/03 04:10:28;;;;;;;2.33;0.93;;;7.70;99.90;;;;;;4984641;28;20973;-82
2024/01/03 04:12:55;;;;;;;6.93;1.10;;;7.70;99.90;;;;;;5006386;28;20629;-82
2024/01/03 04:15:22;;;;;;;3.63;0.97;;;7.60;99.90;;;;;;4990602;28;20282;-82
2024/01/03 04:17:49;;;;;;;4.43;1.00;;;7.60;99.90;;;;;;5006799;28;20770;-82
2024/01/03 04:20:16;;;;;;;3.07;1.27;;;7.60;99.90;;;;;;5006877;28;20280;-82
2024/01/03 04:22:46;;;;;;;3.37;0.80;;;7.60;99.90;;;;;;5019169;28;20229;-82
2024/01/03 04:25:13;;;;;;;3.87;1.00;;;7.60;99.90;;;;;;4986347;28;20225;-83
2024/01/03 04:27:40;;;;;;;4.47;0.70;;;7.60;99.90;;;;;;5008205;28;20287;-82
2024/01/03 04:30:07;;;;;;;3.30;0.70;;;7.50;99.90;;;;;;5001218;28;20228;-83
2024/01/03 04:32:34;;;;;;;3.27;0.70;;;7.50;99.90;;;;;;4987820;28;20251;-82
2024/01/03 04:35:01;;;;;;;2.80;0.80;;;7.50;99.90;;;;;;4995719;28;20224;-81
2024/01/03 04:37:28;;;;;;;1.57;0.60;;;7.50;99.90;;;;;;5015457;28;20232;-81
2024/01/03 04:39:56;;;;;;;4.23;0.70;;;7.40;99.90;;;;;;4991278;28;20228;-81
2024/01/03 04:42:23;;;;;;;1.60;0.60;;;7.40;99.90;;;;;;4995880;28;20287;-82
2024/01/03 04:44:50;;;;;;;3.00;0.57;;;7.40;99.90;;;;;;4987899;28;20286;-81
2024/01/03 04:47:17;;;;;;;2.20;0.70;;;7.40;99.90;;;;;;4994202;28;20225;-82
2024/01/03 04:49:44;;;;;;;1.43;0.63;;;7.30;99.90;;;;;;4980363;28;20294;-81
2024/01/03 04:52:11;;;;;;;1.77;0.60;;;7.40;99.90;;;;;;4989995;28;20225;-82
2024/01/03 04:54:38;;;;;;;2.07;0.50;;;7.30;99.90;;;;;;4989007;28;20223;-83
2024/01/03 04:57:06;;;;;;;2.47;0.70;;;7.30;99.90;;;;;;4984041;28;20321;-82
2024/01/03 04:59:33;;;;;;;4.03;0.83;;;7.30;99.90;;;;;;4982006;28;20713;-82
2024/01/03 05:02:00;;;;;;;2.20;0.70;;;7.30;99.90;;;;;;5012920;28;20265;-82
2024/01/03 05:04:26;;;;;;;5.17;0.83;;;7.30;99.90;;;;;;4988570;28;20230;-81
2024/01/03 05:06:53;;;;;;;2.87;0.70;;;7.30;99.90;;;;;;5006396;28;20302;-82
2024/01/03 05:09:20;;;;;;;3.30;0.73;;;7.30;99.90;;;;;;4991402;28;20298;-82
2024/01/03 05:11:47;;;;;;;3.03;0.60;;;7.30;99.90;;;;;;5004571;28;20221;-82
2024/01/03 05:14:15;;;;;;;3.23;0.63;;;7.30;99.90;;;;;;4990083;28;21057;-82
2024/01/03 05:16:42;;;;;;;2.73;0.80;;;7.30;99.90;;;;;;5002275;28;20300;-83
2024/01/03 05:19:08;;;;;;;2.03;0.70;;;7.30;99.90;;;;;;4984068;28;20234;-83
2024/01/03 05:21:35;;;;;;;4.67;0.60;;;7.30;99.90;;;;;;4990505;28;20233;-82
2024/01/03 05:24:02;;;;;;;14.83;1.70;;;7.30;99.90;;;;;;4985707;28;20259;-83
2024/01/03 05:26:29;;;;;;;6.83;1.07;;;7.30;99.90;;;;;;4995774;28;20316;-82
2024/01/03 05:28:55;;;;;;;3.90;0.90;;;7.30;99.90;;;;;;5019832;28;20984;-81
2024/01/03 05:31:24;;;;;;;18.13;1.87;;;7.30;99.90;;;;;;5008317;28;20263;-81
2024/01/03 05:33:51;;;;;;;7.47;0.93;;;7.30;99.90;;;;;;4990240;28;20236;-81
2024/01/03 05:36:18;;;;;;;19.87;1.63;;;7.30;99.90;;;;;;4976128;28;20280;-82
2024/01/03 05:38:45;;;;;;;3.43;0.80;;;7.30;99.90;;;;;;4966083;28;20770;-82
2024/01/03 05:41:12;;;;;;;8.23;1.00;;;7.30;99.90;;;;;;4971419;28;20264;-83
2024/01/03 05:43:39;;;;;;;9.10;1.23;;;7.30;99.90;;;;;;4992538;28;20227;-82
2024/01/03 05:46:07;;;;;;;7.80;0.80;;;7.30;99.90;;;;;;5000161;28;20239;-82
2024/01/03 05:48:35;;;;;;;9.33;1.03;;;7.40;99.90;;;;;;5006160;28;20228;-82
2024/01/03 05:51:02;;;;;;;7.47;1.13;;;7.40;99.90;;;;;;4990284;28;20233;-82
2024/01/03 05:53:29;;;;;;;7.63;1.50;;;7.40;99.90;;;;;;4987883;28;20644;-81
2024/01/03 05:55:56;;;;;;;4.57;1.07;;;7.40;99.90;;;;;;5002417;28;20233;-81
2024/01/03 05:58:23;;;;;;;9.07;1.20;;;7.40;99.90;;;;;;4994273;28;20866;-81
2024/01/03 06:00:50;;;;;;;7.40;0.97;;;7.40;99.90;;;;;;5007899;28;20221;-81
2024/01/03 06:03:17;;;;;;;3.47;1.00;;;7.50;99.90;;;;;;5016793;28;20228;-82
2024/01/03 06:05:45;;;;;;;6.30;1.30;;;7.40;99.90;;;;;;5001994;28;20232;-82
2024/01/03 06:08:12;;;;;;;2.33;0.87;;;7.40;99.90;;;;;;5013038;28;20228;-81
2024/01/03 06:10:39;;;;;;;3.03;0.87;;;7.40;99.90;;;;;;5002381;28;20730;-81
2024/01/03 06:13:06;;;;;;;3.57;0.90;;;7.40;99.90;;;;;;4996574;28;20229;-81
2024/01/03 06:15:34;;;;;;;5.20;1.13;;;7.40;99.90;;;;;;4994788;28;20709;-82
2024/01/03 06:18:00;;;;;;;4.30;1.47;;;7.40;99.90;;;;;;4985585;28;20239;-82
2024/01/03 06:20:27;;;;;;;3.17;0.97;;;7.40;99.90;;;;;;4993517;28;20268;-83
2024/01/03 06:22:56;;;;;;;3.87;1.10;;;7.40;99.90;;;;;;4994068;28;20749;-82
2024/01/03 06:25:22;;;;;;;3.20;1.00;;;7.40;99.90;;;;;;4993386;28;20232;-83
2024/01/03 06:27:49;;;;;;;4.13;1.10;;;7.40;99.90;;;;;;4993984;28;20239;-82
2024/01/03 06:30:16;;;;;;;4.27;1.40;;;7.40;99.90;;;;;;5011671;28;20243;-85
2024/01/03 06:32:43;;;;;;;2.60;0.73;;;7.40;99.90;;;;;;5019336;28;20926;-84
2024/01/03 06:35:11;;;;;;;5.90;1.10;;;7.40;99.90;;;;;;5012281;28;20230;-81
2024/01/03 06:37:37;;;;;;;2.60;1.13;;;7.30;99.90;;;;;;5001202;28;20741;-81
2024/01/03 06:40:07;;;;;;;2.53;0.93;;;7.30;99.90;;;;;;5017079;28;20229;-86
2024/01/03 06:42:34;;;;;;;3.07;0.70;;;7.40;99.90;;;;;;4989898;28;20235;-84
2024/01/03 06:45:01;;;;;;;1.83;0.60;;;7.40;99.90;;;;;;4993935;28;20668;-84
2024/01/03 06:47:28;;;;;;;2.97;0.60;;;7.40;99.90;;;;;;5010822;28;20228;-84
2024/01/03 06:49:54;;;;;;;0.80;0.43;;;7.40;99.90;;;;;;4993351;28;20228;-84
2024/01/03 06:52:21;;;;;;;1.13;0.60;;;7.40;99.90;;;;;;5025629;28;20233;-84
2024/01/03 06:54:49;;;;;;;1.37;0.70;;;7.40;99.90;;;;;;5029537;28;20289;-84
2024/01/03 06:57:18;;;;;;;0.50;0.30;;;7.40;99.90;;;;;;5013072;28;20285;-85
2024/01/03 06:59:44;;;;;;;1.73;0.50;;;7.40;99.90;;;;;;5030873;28;20235;-84
2024/01/03 07:02:15;;;;;;;1.93;0.50;;;7.40;99.90;;;;;;4998253;28;20251;-85
2024/01/03 07:04:42;;;;;;;1.30;0.40;;;7.40;99.90;;;;;;5032102;28;20264;-84
2024/01/03 07:07:09;;;;;;;1.27;0.47;;;7.30;99.90;;;;;;5005958;28;20317;-84
2024/01/03 07:09:36;;;;;;;1.67;0.57;;;7.40;99.90;;;;;;5014359;28;20242;-84
2024/01/03 07:12:03;;;;;;;0.70;0.40;;;7.40;99.90;;;;;;5014205;28;20227;-84
2024/01/03 07:14:31;;;;;;;0.60;0.40;;;7.40;99.90;;;;;;5009626;28;20250;-84
2024/01/03 07:16:58;;;;;;;1.77;0.67;;;7.30;99.90;;;;;;5031232;28;20289;-85
2024/01/03 07:19:25;;;;;;;0.53;0.30;;;7.30;99.90;;;;;;5013724;28;20286;-84
2024/01/03 07:21:51;;;;;;;0.93;0.50;;;7.30;99.90;;;;;;4995059;28;20337;-84
2024/01/03 07:24:18;;;;;;;1.73;0.80;;;7.30;99.90;;;;;;4994427;28;20236;-84
2024/01/03 07:26:45;;;;;;;1.80;1.20;;;7.40;99.90;;;;;;5012447;28;20254;-84
2024/01/03 07:29:12;;;;;;;5.10;1.37;;;7.40;99.90;;;;;;4994122;28;20241;-84
2024/01/03 07:31:40;;;;;;;3.53;1.23;;;7.40;99.90;;;;;;4994311;28;20228;-84
2024/01/03 07:34:07;;;;;;;3.93;1.20;;;7.40;99.90;;;;;;5011923;28;20240;-84
2024/01/03 07:36:33;;;;;;;6.43;1.50;;;7.40;99.90;;;;;;4993898;28;20866;-84
2024/01/03 07:39:02;;;;;;;3.33;1.30;;;7.40;99.90;;;;;;5011969;28;20268;-84
2024/01/03 07:41:30;;;;;;;4.63;1.63;;;7.40;99.90;;;;;;4993455;28;20236;-85
2024/01/03 07:43:57;;;;;;;9.90;1.80;;;7.40;99.90;;;;;;5010171;28;20219;-84
2024/01/03 07:46:25;;;;;;;6.47;2.00;;;7.40;99.90;;;;;;5016575;28;21372;-85
2024/01/03 07:48:53;;;;;;;6.33;1.70;;;7.40;99.90;;;;;;4994074;28;20317;-85
2024/01/03 07:51:19;;;;;;;7.23;1.90;;;7.40;99.90;;;;;;4993142;28;20610;-85
2024/01/03 07:53:46;;;;;;;5.87;1.70;;;7.30;99.90;;;;;;4994080;28;20224;-85
2024/01/03 07:56:13;;;;;;;7.57;1.70;;;7.40;99.90;;;;;;4993248;28;20235;-85
2024/01/03 07:58:40;;;;;;;7.77;2.17;;;7.40;99.90;;;;;;4994105;28;20228;-84
2024/01/03 08:01:10;;;;;;;6.87;1.80;;;7.40;99.90;;;;;;4992302;28;20236;-85
2024/01/03 08:03:36;;;;;;;7.60;1.83;;;7.40;99.90;;;;;;4993472;28;20234;-85
2024/01/03 08:06:05;;;;;;;8.33;2.07;;;7.40;99.90;;;;;;5004157;28;20299;-85
2024/01/03 08:08:32;;;;;;;8.30;2.20;;;7.40;99.90;;;;;;4998616;28;20242;-85
2024/01/03 08:10:58;;;;;;;5.57;1.70;;;7.40;99.90;;;;;;4997832;28;20770;-85
2024/01/03 08:13:25;;;;;;;9.40;2.07;;;7.40;99.90;;;;;;4987976;28;20229;-85
2024/01/03 08:15:52;;;;;;;8.30;1.90;;;7.40;99.90;;;;;;5005553;28;20319;-86
2024/01/03 08:18:19;;;;;;;7.00;1.87;;;7.30;99.90;;;;;;5006509;28;20243;-86
2024/01/03 08:20:45;;;;;;;4.83;1.87;;;7.40;99.90;;;;;;5005147;28;20310;-86
2024/01/03 08:23:13;;;;;;;9.77;1.80;;;7.40;99.90;;;;;;5022329;28;20281;-86
2024/01/03 08:25:40;;;;;;;6.17;1.70;;;7.40;99.90;;;;;;5000958;28;20326;-86
2024/01/03 08:28:07;;;;;;;7.70;1.63;;;7.40;99.90;;;;;;5010418;28;20319;-87
2024/01/03 08:30:33;;;;;;;8.40;2.00;;;7.40;99.90;;;;;;5000276;28;20439;-86
2024/01/03 08:33:00;;;;;;;8.57;1.80;;;7.40;99.90;;;;;;5015518;28;21018;-86
2024/01/03 08:35:27;;;;;;;9.03;1.80;;;7.40;99.90;;;;;;5012325;28;20274;-87
2024/01/03 08:37:54;;;;;;;6.00;1.93;;;7.50;99.90;;;;;;4994752;28;20225;-87
2024/01/03 08:40:24;;;;;;;8.70;2.23;;;7.50;99.90;;;;;;4990256;28;20248;-86
2024/01/03 08:42:51;;;;;;;8.63;1.93;;;7.50;99.90;;;;;;4992208;28;20255;-86
2024/01/03 08:45:17;;;;;;;9.03;2.13;;;7.50;99.90;;;;;;5009260;28;20249;-86
2024/01/03 08:47:44;;;;;;;9.73;2.17;;;7.60;99.90;;;;;;5016643;28;20790;-86
2024/01/03 08:50:13;;;;;;;9.73;1.90;;;7.60;99.90;;;;;;4989908;28;20240;-86
2024/01/03 08:52:41;;;;;;;9.83;2.03;;;7.60;99.90;;;;;;4989021;28;20229;-85
2024/01/03 08:55:08;;;;;;;6.83;1.90;;;7.70;99.90;;;;;;4994300;28;20771;-86
2024/01/03 08:57:36;;;;;;;6.53;1.80;;;7.70;99.90;;;;;;5000177;28;20309;-87
2024/01/03 09:00:03;;;;;;;7.97;2.30;;;7.70;99.90;;;;;;4992956;28;20818;-86
2024/01/03 09:02:30;;;;;;;7.60;2.00;;;7.70;99.90;;;;;;5006201;28;20229;-86
2024/01/03 09:04:57;;;;;;;9.87;1.93;;;7.80;99.90;;;;;;4992509;28;20223;-86
2024/01/03 09:07:23;;;;;;;9.03;2.50;;;7.80;99.90;;;;;;4996525;28;20255;-87
2024/01/03 09:09:50;;;;;;;8.50;1.90;;;7.90;99.90;;;;;;4995026;28;20230;-85
2024/01/03 09:12:18;;;;;;;6.10;1.90;;;7.90;99.90;;;;;;4999920;28;20308;-86
2024/01/03 09:14:46;;;;;;;9.83;1.93;;;7.90;99.90;;;;;;5000107;28;20233;-87
2024/01/03 09:17:13;;;;;;;4.47;1.83;;;7.90;99.90;;;;;;5006169;28;20250;-86
2024/01/03 09:19:40;;;;;;;7.30;1.97;;;7.90;99.90;;;;;;4990154;28;20422;-87
2024/01/03 09:22:07;;;;;;;8.40;2.07;;;8.00;99.90;;;;;;5007664;28;20271;-87
2024/01/03 09:24:33;;;;;;;8.27;1.70;;;8.00;99.90;;;;;;4978805;28;20832;-86
2024/01/03 09:27:00;;;;;;;7.00;1.60;;;8.00;99.90;;;;;;4974006;28;20298;-87
2024/01/03 09:29:27;;;;;;;5.53;1.70;;;8.00;99.90;;;;;;5019103;28;20232;-86
2024/01/03 09:31:56;;;;;;;5.93;1.67;;;8.10;99.90;;;;;;4986964;28;20233;-86
2024/01/03 09:34:23;;;;;;;8.20;2.17;;;8.10;99.90;;;;;;5013953;28;20231;-86
2024/01/03 09:36:50;;;;;;;5.27;1.90;;;8.10;99.90;;;;;;4982558;28;20221;-85
2024/01/03 09:39:17;;;;;;;4.63;1.23;;;8.20;99.90;;;;;;4997850;28;20239;-87
2024/01/03 09:41:44;;;;;;;7.47;1.50;;;8.30;99.90;;;;;;5015231;28;20222;-86
2024/01/03 09:44:12;;;;;;;6.47;1.97;;;8.20;99.90;;;;;;4996553;28;20605;-87
2024/01/03 09:46:38;;;;;;;7.77;1.53;;;8.20;99.90;;;;;;4997595;28;20239;-86
2024/01/03 09:49:07;;;;;;;5.60;1.77;;;8.30;99.90;;;;;;5003340;28;20236;-86
2024/01/03 09:51:35;;;;;;;5.73;1.90;;;8.30;99.90;;;;;;5000910;28;20223;-86
2024/01/03 09:54:05;;;;;;;5.83;1.70;;;8.30;99.90;;;;;;5002396;28;20220;-86
2024/01/03 09:56:32;;;;;;;6.60;1.63;;;8.30;99.90;;;;;;5013252;28;20285;-85
2024/01/03 09:58:58;;;;;;;5.50;1.57;;;8.30;99.90;;;;;;4998302;28;20281;-86
2024/01/03 10:01:25;;;;;;;8.67;1.87;;;8.30;99.90;;;;;;4992568;28;20653;-84
2024/01/03 10:03:52;;;;;;;5.27;1.77;;;8.40;99.90;;;;;;4991249;28;20320;-86
2024/01/03 10:06:20;;;;;;;7.10;2.10;;;8.40;99.90;;;;;;4994731;28;20719;-86
2024/01/03 10:08:58;;;;;;;6.50;1.93;;;8.50;99.90;;;;;;4969317;28;20225;-87
2024/01/03 10:11:25;;;;;;;10.53;2.23;;;8.50;99.90;;;;;;4994134;28;20708;-86
2024/01/03 10:13:54;;;;;;;11.03;2.43;;;8.50;99.90;;;;;;5014168;28;20323;-86
2024/01/03 10:16:25;;;;;;;7.20;2.30;;;8.50;99.90;;;;;;4994737;28;20260;-87
2024/01/03 10:19:09;;;;;;;9.90;2.37;;;8.50;99.90;;;;;;4997852;28;20311;-86
2024/01/03 10:21:38;;;;;;;9.03;2.57;;;8.60;99.90;;;;;;5021041;28;20229;-87
2024/01/03 10:24:07;;;;;;;7.37;2.30;;;8.60;99.90;;;;;;5002918;28;20319;-87
2024/01/03 10:26:35;;;;;;;8.47;2.37;;;8.60;99.90;;;;;;5024969;28;20230;-85
2024/01/03 10:29:12;;;;;;;6.07;1.73;;;8.60;99.90;;;;;;4992719;28;20690;-86
2024/01/03 10:31:39;;;;;;;8.33;2.17;;;8.60;99.90;;;;;;4990802;28;20251;-87
2024/01/03 10:34:06;;;;;;;8.63;1.97;;;8.70;99.90;;;;;;5004610;28;20225;-87
2024/01/03 10:36:34;;;;;;;10.87;2.23;;;8.70;99.90;;;;;;4998556;28;20239;-86
2024/01/03 10:39:04;;;;;;;9.43;1.80;;;8.70;99.90;;;;;;5006126;28;20236;-86
2024/01/03 10:41:31;;;;;;;9.40;2.30;;;8.80;99.90;;;;;;4992472;28;20236;-87
2024/01/03 10:44:00;;;;;;;9.87;2.30;;;8.80;99.90;;;;;;4993502;28;20233;-86
2024/01/03 10:46:28;;;;;;;8.27;2.20;;;8.80;99.90;;;;;;5014059;28;20248;-86
2024/01/03 10:48:55;;;;;;;10.60;1.97;;;8.90;99.90;;;;;;4994109;28;20749;-87
2024/01/03 10:51:24;;;;;;;10.63;2.30;;;8.90;99.90;;;;;;4997569;28;20307;-86
2024/01/03 10:53:53;;;;;;;10.13;2.20;;;8.90;99.90;;;;;;4989222;28;20221;-87
2024/01/03 10:56:22;;;;;;;7.37;1.60;;;9.00;99.90;;;;;;4990201;28;20725;-86
2024/01/03 10:58:49;;;;;;;6.63;1.90;;;8.90;99.90;;;;;;5005533;28;20255;-86
2024/01/03 11:01:20;;;;;;;4.87;1.73;;;8.90;99.90;;;;;;4980620;28;20811;-87
2024/01/03 11:04:04;;;;;;;6.50;2.07;;;8.90;99.90;;;;;;5005515;28;20316;-86
2024/01/03 11:06:37;;;;;;;9.03;2.10;;;9.00;99.90;;;;;;4990772;28;20304;-86
2024/01/03 11:09:04;;;;;;;7.37;1.63;;;9.00;99.90;;;;;;5018675;28;20263;-84
2024/01/03 11:11:34;;;;;;;7.47;2.20;;;9.00;99.90;;;;;;5015700;28;20276;-86
2024/01/03 11:14:02;;;;;;;5.70;1.90;;;9.00;99.90;;;;;;4994997;28;20311;-86
2024/01/03 11:16:37;;;;;;;4.53;1.40;;;9.00;99.90;;;;;;4993142;28;20782;-86
2024/01/03 11:19:07;;;;;;;5.83;1.77;;;9.00;99.90;;;;;;5009751;28;20721;-87
2024/01/03 11:21:50;;;;;;;5.77;1.50;;;9.00;99.90;;;;;;5028995;28;20604;-87
2024/01/03 11:24:49;;;;;;;9.27;1.83;;;9.00;99.90;;;;;;4991620;28;20248;-85
2024/01/03 11:27:21;;;;;;;4.67;1.50;;;9.00;99.90;;;;;;4971324;28;20224;-85
2024/01/03 11:29:48;;;;;;;7.77;2.03;;;9.10;99.90;;;;;;5000956;28;20226;-87
2024/01/03 11:32:25;;;;;;;8.83;1.60;;;9.00;99.90;;;;;;5011207;28;20228;-87
2024/01/03 11:34:52;;;;;;;6.00;1.93;;;9.10;99.90;;;;;;4989380;28;20622;-87
2024/01/03 11:37:38;;;;;;;7.57;1.97;;;9.10;99.90;;;;;;4995511;28;20235;-86
2024/01/03 11:40:10;;;;;;;7.57;2.03;;;9.10;99.90;;;;;;4998504;28;20233;-85
2024/01/03 11:42:39;;;;;;;5.40;1.80;;;9.10;99.90;;;;;;5025140;28;20674;-86
2024/01/03 11:45:08;;;;;;;5.30;1.70;;;9.10;99.90;;;;;;4994778;28;20319;-86
2024/01/03 11:47:36;;;;;;;5.80;1.50;;;9.00;99.90;;;;;;5003655;28;20242;-86
2024/01/03 11:50:04;;;;;;;6.10;1.70;;;9.00;99.90;;;;;;5006807;28;20282;-85
2024/01/03 11:52:35;;;;;;;5.70;1.30;;;9.00;99.90;;;;;;4999212;28;20232;-85
2024/01/03 11:55:10;;;;;;;3.30;1.20;;;9.00;99.90;;;;;;4995400;28;20231;-85
2024/01/03 11:57:43;;;;;;;6.07;1.60;;;9.00;99.90;;;;;;4996406;28;20234;-86
2024/01/03 12:00:12;;;;;;;10.73;1.57;;;9.00;99.90;;;;;;4985858;28;20291;-86
2024/01/03 12:02:49;;;;;;;6.60;1.43;;;9.00;99.90;;;;;;5026081;28;20302;-85
2024/01/03 12:05:17;;;;;;;6.80;1.70;;;8.90;99.90;;;;;;5021514;28;20232;-86
2024/01/03 12:07:45;;;;;;;6.80;1.90;;;9.00;99.90;;;;;;5017358;28;20266;-84
2024/01/03 12:10:13;;;;;;;8.03;1.97;;;9.00;99.90;;;;;;4992816;28;20229;-86
2024/01/03 12:12:46;;;;;;;9.47;2.30;;;9.00;99.90;;;;;;5011121;28;20428;-86
2024/01/03 12:15:23;;;;;;;8.70;1.60;;;9.00;99.90;;;;;;4983366;28;20243;-86
2024/01/03 12:17:50;;;;;;;6.17;1.90;;;9.10;99.90;;;;;;4987887;28;20228;-86
2024/01/03 12:20:19;;;;;;;6.00;1.60;;;9.10;99.90;;;;;;5007533;28;20320;-85
2024/01/03 12:22:46;;;;;;;6.47;1.90;;;9.10;99.90;;;;;;5002228;28;20751;-85
2024/01/03 12:25:18;;;;;;;6.83;1.93;;;9.10;99.90;;;;;;4995925;28;20232;-86
2024/01/03 12:27:46;;;;;;;7.90;2.20;;;9.10;99.90;;;;;;5006280;28;20314;-85
2024/01/03 12:30:15;;;;;;;5.57;1.57;;;9.10;99.90;;;;;;4989244;28;20260;-86
2024/01/03 12:32:41;;;;;;;7.10;1.80;;;9.10;99.90;;;;;;4996336;28;20688;-86
2024/01/03 12:35:09;;;;;;;6.93;1.70;;;9.10;99.90;;;;;;4994784;28;20254;-86
2024/01/03 12:37:36;;;;;;;7.37;2.10;;;9.10;99.90;;;;;;4995698;28;20988;-86
2024/01/03 12:40:03;;;;;;;4.43;1.33;;;9.10;99.90;;;;;;5018117;28;20322;-86
2024/01/03 12:42:30;;;;;;;3.57;1.30;;;9.10;99.90;;;;;;4985393;28;20223;-86
2024/01/03 12:44:58;;;;;;;4.77;1.43;;;9.10;99.90;;;;;;5018763;28;20316;-85
2024/01/03 12:47:25;;;;;;;6.27;1.70;;;9.10;99.90;;;;;;5010919;28;20258;-84
2024/01/03 12:49:55;;;;;;;6.37;1.83;;;9.10;99.90;;;;;;4998504;28;20236;-86
2024/01/03 12:52:29;;;;;;;4.93;1.43;;;9.10;99.90;;;;;;4990652;28;20270;-86
2024/01/03 12:54:56;;;;;;;5.83;1.60;;;9.10;99.90;;;;;;4984607;28;20227;-86
2024/01/03 12:57:23;;;;;;;4.13;1.30;;;9.10;99.90;;;;;;4999892;28;20972;-85
2024/01/03 12:59:50;;;;;;;7.00;1.93;;;9.00;99.90;;;;;;5003248;28;20611;-86
2024/01/03 13:02:18;;;;;;;4.73;1.23;;;9.00;99.90;;;;;;5007911;28;20294;-86